sensor_id;sensor_type;location;lat;lon;timestamp;temperature;humidity
16829;DHT22;8531;48.078;11.968;2023-10-19T00:00:42;8.60;99.90
16829;DHT22;8531;48.078;11.968;2023-10-19T00:03:11;8.50;99.90
16829;DHT22;8531;48.078;11.968;2023-10-19T00:05:38;8.50;99.90
16829;DHT22;8531;48.078;11.968;2023-10-19T00:08:05;8.60;99.90
16829;DHT22;8531;48.078;11.968;2023-10-19T00:10:45;8.60;99.90
16829;DHT22;8531;48.078;11.968;2023-10-19T00:13:16;8.40;99.90
16829;DHT22;8531;48.078;11.968;2023-10-19T00:15:45;8.50;99.90
16829;DHT22;8531;48.078;11.968;2023-10-19T00:18:15;8.50;99.90
16829;DHT22;8531;48.078;11.968;2023-10-19T00:20:49;8.40;99.90
16829;DHT22;8531;48.078;11.968;2023-10-19T00:23:23;8.40;99.90
16829;DHT22;8531;48.078;11.968;2023-10-19T00:25:58;8.30;99.90
16829;DHT22;8531;48.078;11.968;2023-10-19T00:28:24;8.30;99.90
16829;DHT22;8531;48.078;11.968;2023-10-19T00:30:52;8.30;99.90
16829;DHT22;8531;48.078;11.968;2023-10-19T00:33:19;8.20;99.90
16829;DHT22;8531;48.078;11.968;2023-10-19T00:35:54;8.20;99.90
16829;DHT22;8531;48.078;11.968;2023-10-19T00:38:25;8.20;99.90
16829;DHT22;8531;48.078;11.968;2023-10-19T00:41:00;8.10;99.90
16829;DHT22;8531;48.078;11.968;2023-10-19T00:43:39;8.20;99.90
16829;DHT22;8531;48.078;11.968;2023-10-19T00:46:09;8.30;99.90
16829;DHT22;8531;48.078;11.968;2023-10-19T00:49:01;8.30;99.90
16829;DHT22;8531;48.078;11.968;2023-10-19T00:51:29;8.30;99.90
16829;DHT22;8531;48.078;11.968;2023-10-19T00:53:58;8.30;99.90
16829;DHT22;8531;48.078;11.968;2023-10-19T00:56:27;8.40;99.90
16829;DHT22;8531;48.078;11.968;2023-10-19T00:58:57;8.50;99.90
16829;DHT22;8531;48.078;11.968;2023-10-19T01:01:33;8.50;99.90
16829;DHT22;8531;48.078;11.968;2023-10-19T01:04:03;8.50;99.90
16829;DHT22;8531;48.078;11.968;2023-10-19T01:06:29;8.50;99.90
16829;DHT22;8531;48.078;11.968;2023-10-19T01:08:58;8.60;99.90
16829;DHT22;8531;48.078;11.968;2023-10-19T01:11:24;8.50;99.90
16829;DHT22;8531;48.078;11.968;2023-10-19T01:13:54;8.40;99.90
16829;DHT22;8531;48.078;11.968;2023-10-19T01:16:20;8.40;99.90
16829;DHT22;8531;48.078;11.968;2023-10-19T01:18:51;8.40;99.90
16829;DHT22;8531;48.078;11.968;2023-10-19T01:21:23;8.30;99.90
16829;DHT22;8531;48.078;11.968;2023-10-19T01:24:06;8.40;99.90
16829;DHT22;8531;48.078;11.968;2023-10-19T01:26:33;8.40;99.90
16829;DHT22;8531;48.078;11.968;2023-10-19T01:29:02;8.50;99.90
16829;DHT22;8531;48.078;11.968;2023-10-19T01:31:38;8.40;99.90
16829;DHT22;8531;48.078;11.968;2023-10-19T01:34:16;8.50;99.90
16829;DHT22;8531;48.078;11.968;2023-10-19T01:36:46;8.50;99.90
16829;DHT22;8531;48.078;11.968;2023-10-19T01:39:16;8.50;99.90
16829;DHT22;8531;48.078;11.968;2023-10-19T01:41:44;8.60;99.90
16829;DHT22;8531;48.078;11.968;2023-10-19T01:44:10;8.60;99.90
16829;DHT22;8531;48.078;11.968;2023-10-19T01:46:41;8.50;99.90
16829;DHT22;8531;48.078;11.968;2023-10-19T01:49:09;8.40;99.90
16829;DHT22;8531;48.078;11.968;2023-10-19T01:51:36;8.40;99.90
16829;DHT22;8531;48.078;11.968;2023-10-19T01:54:04;8.60;99.90
16829;DHT22;8531;48.078;11.968;2023-10-19T01:56:32;8.50;99.90
16829;DHT22;8531;48.078;11.968;2023-10-19T01:59:04;8.60;99.90
16829;DHT22;8531;48.078;11.968;2023-10-19T02:01:30;8.50;99.90
16829;DHT22;8531;48.078;11.968;2023-10-19T02:04:03;8.60;99.90
16829;DHT22;8531;48.078;11.968;2023-10-19T02:06:32;8.60;99.90
16829;DHT22;8531;48.078;11.968;2023-10-19T02:11:39;8.70;99.90
16829;DHT22;8531;48.078;11.968;2023-10-19T02:14:08;8.80;99.90
16829;DHT22;8531;48.078;11.968;2023-10-19T02:16:43;8.90;99.90
16829;DHT22;8531;48.078;11.968;2023-10-19T02:19:10;8.80;99.90
16829;DHT22;8531;48.078;11.968;2023-10-19T02:21:36;8.90;99.90
16829;DHT22;8531;48.078;11.968;2023-10-19T02:24:07;8.90;99.90
16829;DHT22;8531;48.078;11.968;2023-10-19T02:26:33;8.80;99.90
16829;DHT22;8531;48.078;11.968;2023-10-19T02:28:59;8.80;99.90
16829;DHT22;8531;48.078;11.968;2023-10-19T02:31:25;8.70;99.90
16829;DHT22;8531;48.078;11.968;2023-10-19T02:33:52;8.70;99.90
16829;DHT22;8531;48.078;11.968;2023-10-19T02:36:27;8.70;99.90
16829;DHT22;8531;48.078;11.968;2023-10-19T02:39:00;8.70;99.90
16829;DHT22;8531;48.078;11.968;2023-10-19T02:41:29;8.60;99.90
16829;DHT22;8531;48.078;11.968;2023-10-19T02:43:55;8.50;99.90
16829;DHT22;8531;48.078;11.968;2023-10-19T02:46:49;8.40;99.90
16829;DHT22;8531;48.078;11.968;2023-10-19T02:49:20;8.40;99.90
16829;DHT22;8531;48.078;11.968;2023-10-19T02:51:48;8.30;99.90
16829;DHT22;8531;48.078;11.968;2023-10-19T02:54:16;8.40;99.90
16829;DHT22;8531;48.078;11.968;2023-10-19T02:56:46;8.50;99.90
16829;DHT22;8531;48.078;11.968;2023-10-19T02:59:17;8.70;99.90
16829;DHT22;8531;48.078;11.968;2023-10-19T03:01:52;8.70;99.90
16829;DHT22;8531;48.078;11.968;2023-10-19T03:04:20;8.80;99.90
16829;DHT22;8531;48.078;11.968;2023-10-19T03:06:45;8.70;99.90
16829;DHT22;8531;48.078;11.968;2023-10-19T03:09:11;8.80;99.90
16829;DHT22;8531;48.078;11.968;2023-10-19T03:11:58;9.00;99.90
16829;DHT22;8531;48.078;11.968;2023-10-19T03:14:30;9.00;99.90
16829;DHT22;8531;48.078;11.968;2023-10-19T03:16:57;9.00;99.90
16829;DHT22;8531;48.078;11.968;2023-10-19T03:19:25;9.00;99.90
16829;DHT22;8531;48.078;11.968;2023-10-19T03:21:51;9.10;99.90
16829;DHT22;8531;48.078;11.968;2023-10-19T03:24:18;9.20;99.90
16829;DHT22;8531;48.078;11.968;2023-10-19T03:27:07;9.20;99.90
16829;DHT22;8531;48.078;11.968;2023-10-19T03:29:49;9.20;99.90
16829;DHT22;8531;48.078;11.968;2023-10-19T03:32:22;9.20;99.90
16829;DHT22;8531;48.078;11.968;2023-10-19T03:34:52;9.10;99.90
16829;DHT22;8531;48.078;11.968;2023-10-19T03:37:22;9.20;99.90
16829;DHT22;8531;48.078;11.968;2023-10-19T03:39:48;9.20;99.90
16829;DHT22;8531;48.078;11.968;2023-10-19T03:42:14;9.20;99.90
16829;DHT22;8531;48.078;11.968;2023-10-19T03:44:40;9.20;99.90
16829;DHT22;8531;48.078;11.968;2023-10-19T03:47:16;9.20;99.90
16829;DHT22;8531;48.078;11.968;2023-10-19T03:49:49;9.20;99.90
16829;DHT22;8531;48.078;11.968;2023-10-19T03:52:16;9.20;99.90
16829;DHT22;8531;48.078;11.968;2023-10-19T03:54:43;9.30;99.90
16829;DHT22;8531;48.078;11.968;2023-10-19T03:57:13;9.30;99.90
16829;DHT22;8531;48.078;11.968;2023-10-19T03:59:50;9.30;99.90
16829;DHT22;8531;48.078;11.968;2023-10-19T04:02:21;9.30;99.90
16829;DHT22;8531;48.078;11.968;2023-10-19T04:04:47;9.30;99.90
16829;DHT22;8531;48.078;11.968;2023-10-19T04:07:17;9.30;99.90
16829;DHT22;8531;48.078;11.968;2023-10-19T04:09:54;9.30;99.90
16829;DHT22;8531;48.078;11.968;2023-10-19T04:12:30;9.20;99.90
16829;DHT22;8531;48.078;11.968;2023-10-19T04:14:57;9.20;99.90
16829;DHT22;8531;48.078;11.968;2023-10-19T04:17:23;9.20;99.90
16829;DHT22;8531;48.078;11.968;2023-10-19T04:19:50;9.20;99.90
16829;DHT22;8531;48.078;11.968;2023-10-19T04:22:20;9.10;99.90
16829;DHT22;8531;48.078;11.968;2023-10-19T04:24:52;9.00;99.90
16829;DHT22;8531;48.078;11.968;2023-10-19T04:27:18;9.00;99.90
16829;DHT22;8531;48.078;11.968;2023-10-19T04:29:47;9.00;99.90
16829;DHT22;8531;48.078;11.968;2023-10-19T04:32:15;8.90;99.90
16829;DHT22;8531;48.078;11.968;2023-10-19T04:34:44;8.90;99.90
16829;DHT22;8531;48.078;11.968;2023-10-19T04:37:10;9.00;99.90
16829;DHT22;8531;48.078;11.968;2023-10-19T04:39:38;8.90;99.90
16829;DHT22;8531;48.078;11.968;2023-10-19T04:42:03;8.90;99.90
16829;DHT22;8531;48.078;11.968;2023-10-19T04:44:29;9.00;99.90
16829;DHT22;8531;48.078;11.968;2023-10-19T04:46:56;9.00;99.90
16829;DHT22;8531;48.078;11.968;2023-10-19T04:49:22;9.10;99.90
16829;DHT22;8531;48.078;11.968;2023-10-19T04:51:48;9.20;99.90
16829;DHT22;8531;48.078;11.968;2023-10-19T04:54:14;9.20;99.90
16829;DHT22;8531;48.078;11.968;2023-10-19T04:56:39;9.20;99.90
16829;DHT22;8531;48.078;11.968;2023-10-19T04:59:05;9.20;99.90
16829;DHT22;8531;48.078;11.968;2023-10-19T05:01:31;9.30;99.90
16829;DHT22;8531;48.078;11.968;2023-10-19T05:04:00;9.40;99.90
16829;DHT22;8531;48.078;11.968;2023-10-19T05:06:26;9.40;99.90
16829;DHT22;8531;48.078;11.968;2023-10-19T05:08:52;9.30;99.90
16829;DHT22;8531;48.078;11.968;2023-10-19T05:11:18;9.30;99.90
16829;DHT22;8531;48.078;11.968;2023-10-19T05:13:43;9.30;99.90
16829;DHT22;8531;48.078;11.968;2023-10-19T05:16:09;9.30;99.90
16829;DHT22;8531;48.078;11.968;2023-10-19T05:18:35;9.30;99.90
16829;DHT22;8531;48.078;11.968;2023-10-19T05:21:00;9.40;99.90
16829;DHT22;8531;48.078;11.968;2023-10-19T05:23:27;9.40;99.90
16829;DHT22;8531;48.078;11.968;2023-10-19T05:26:11;9.40;99.90
16829;DHT22;8531;48.078;11.968;2023-10-19T05:28:38;9.30;99.90
16829;DHT22;8531;48.078;11.968;2023-10-19T05:31:03;9.40;99.90
16829;DHT22;8531;48.078;11.968;2023-10-19T05:33:29;9.50;99.90
16829;DHT22;8531;48.078;11.968;2023-10-19T05:35:55;9.50;99.90
16829;DHT22;8531;48.078;11.968;2023-10-19T05:38:21;9.60;99.90
16829;DHT22;8531;48.078;11.968;2023-10-19T05:40:50;9.70;99.90
16829;DHT22;8531;48.078;11.968;2023-10-19T05:43:17;9.70;99.90
16829;DHT22;8531;48.078;11.968;2023-10-19T05:45:44;9.70;99.90
16829;DHT22;8531;48.078;11.968;2023-10-19T05:48:12;9.60;99.90
16829;DHT22;8531;48.078;11.968;2023-10-19T05:50:43;9.60;99.90
16829;DHT22;8531;48.078;11.968;2023-10-19T05:53:09;9.80;99.90
16829;DHT22;8531;48.078;11.968;2023-10-19T05:55:35;9.80;99.90
16829;DHT22;8531;48.078;11.968;2023-10-19T05:58:02;9.80;99.90
16829;DHT22;8531;48.078;11.968;2023-10-19T06:00:30;9.80;99.90
16829;DHT22;8531;48.078;11.968;2023-10-19T06:02:56;9.80;99.90
16829;DHT22;8531;48.078;11.968;2023-10-19T06:05:23;9.80;99.90
16829;DHT22;8531;48.078;11.968;2023-10-19T06:07:49;9.90;99.90
16829;DHT22;8531;48.078;11.968;2023-10-19T06:10:18;9.90;99.90
16829;DHT22;8531;48.078;11.968;2023-10-19T06:12:46;10.00;99.90
16829;DHT22;8531;48.078;11.968;2023-10-19T06:15:13;10.00;99.90
16829;DHT22;8531;48.078;11.968;2023-10-19T06:17:39;10.00;99.90
16829;DHT22;8531;48.078;11.968;2023-10-19T06:20:07;10.00;99.90
16829;DHT22;8531;48.078;11.968;2023-10-19T06:22:36;10.10;99.90
16829;DHT22;8531;48.078;11.968;2023-10-19T06:25:03;10.10;99.90
16829;DHT22;8531;48.078;11.968;2023-10-19T06:27:31;10.20;99.90
16829;DHT22;8531;48.078;11.968;2023-10-19T06:29:58;10.30;99.90
16829;DHT22;8531;48.078;11.968;2023-10-19T06:32:23;10.30;99.90
16829;DHT22;8531;48.078;11.968;2023-10-19T06:34:49;10.30;99.90
16829;DHT22;8531;48.078;11.968;2023-10-19T06:37:15;10.40;99.90
16829;DHT22;8531;48.078;11.968;2023-10-19T06:39:41;10.40;99.90
16829;DHT22;8531;48.078;11.968;2023-10-19T06:42:08;10.50;99.90
16829;DHT22;8531;48.078;11.968;2023-10-19T06:44:40;10.40;99.90
16829;DHT22;8531;48.078;11.968;2023-10-19T06:47:07;10.50;99.90
16829;DHT22;8531;48.078;11.968;2023-10-19T06:49:33;10.50;99.90
16829;DHT22;8531;48.078;11.968;2023-10-19T06:52:00;10.50;99.90
16829;DHT22;8531;48.078;11.968;2023-10-19T06:54:25;10.60;99.90
16829;DHT22;8531;48.078;11.968;2023-10-19T06:56:53;10.70;99.90
16829;DHT22;8531;48.078;11.968;2023-10-19T06:59:19;10.70;99.90
16829;DHT22;8531;48.078;11.968;2023-10-19T07:01:44;10.60;99.90
16829;DHT22;8531;48.078;11.968;2023-10-19T07:04:12;10.70;99.90
16829;DHT22;8531;48.078;11.968;2023-10-19T07:06:39;10.80;99.90
16829;DHT22;8531;48.078;11.968;2023-10-19T07:09:04;10.90;99.90
16829;DHT22;8531;48.078;11.968;2023-10-19T07:11:32;11.00;99.90
16829;DHT22;8531;48.078;11.968;2023-10-19T07:14:00;11.10;99.90
16829;DHT22;8531;48.078;11.968;2023-10-19T07:16:26;11.20;99.90
16829;DHT22;8531;48.078;11.968;2023-10-19T07:18:52;11.30;99.90
16829;DHT22;8531;48.078;11.968;2023-10-19T07:21:18;11.30;99.90
16829;DHT22;8531;48.078;11.968;2023-10-19T07:23:45;11.40;99.90
16829;DHT22;8531;48.078;11.968;2023-10-19T07:26:11;11.50;99.90
16829;DHT22;8531;48.078;11.968;2023-10-19T07:28:40;11.60;99.90
16829;DHT22;8531;48.078;11.968;2023-10-19T07:31:08;11.60;99.90
16829;DHT22;8531;48.078;11.968;2023-10-19T07:33:38;11.70;99.90
16829;DHT22;8531;48.078;11.968;2023-10-19T07:36:13;11.80;99.90
16829;DHT22;8531;48.078;11.968;2023-10-19T07:38:40;11.80;99.90
16829;DHT22;8531;48.078;11.968;2023-10-19T07:41:07;11.90;99.90
16829;DHT22;8531;48.078;11.968;2023-10-19T07:43:35;12.00;99.90
16829;DHT22;8531;48.078;11.968;2023-10-19T07:46:01;12.10;99.90
16829;DHT22;8531;48.078;11.968;2023-10-19T07:48:27;12.10;99.90
16829;DHT22;8531;48.078;11.968;2023-10-19T07:50:52;12.10;99.90
16829;DHT22;8531;48.078;11.968;2023-10-19T07:53:19;12.20;99.90
16829;DHT22;8531;48.078;11.968;2023-10-19T07:55:47;12.30;99.90
16829;DHT22;8531;48.078;11.968;2023-10-19T07:58:12;12.20;99.90
16829;DHT22;8531;48.078;11.968;2023-10-19T08:00:38;12.30;99.90
16829;DHT22;8531;48.078;11.968;2023-10-19T08:03:05;12.30;99.90
16829;DHT22;8531;48.078;11.968;2023-10-19T08:05:34;12.30;99.90
16829;DHT22;8531;48.078;11.968;2023-10-19T08:07:59;12.30;99.90
16829;DHT22;8531;48.078;11.968;2023-10-19T08:10:26;12.40;99.90
16829;DHT22;8531;48.078;11.968;2023-10-19T08:12:53;12.40;99.90
16829;DHT22;8531;48.078;11.968;2023-10-19T08:15:19;12.60;99.90
16829;DHT22;8531;48.078;11.968;2023-10-19T08:17:47;12.60;99.90
16829;DHT22;8531;48.078;11.968;2023-10-19T08:20:14;12.60;99.90
16829;DHT22;8531;48.078;11.968;2023-10-19T08:22:53;12.60;99.90
16829;DHT22;8531;48.078;11.968;2023-10-19T08:25:19;12.70;99.90
16829;DHT22;8531;48.078;11.968;2023-10-19T08:27:46;12.80;99.90
16829;DHT22;8531;48.078;11.968;2023-10-19T08:30:20;12.80;99.90
16829;DHT22;8531;48.078;11.968;2023-10-19T08:32:46;12.80;99.90
16829;DHT22;8531;48.078;11.968;2023-10-19T08:35:17;13.00;99.90
16829;DHT22;8531;48.078;11.968;2023-10-19T08:37:46;13.10;99.90
16829;DHT22;8531;48.078;11.968;2023-10-19T08:40:12;13.30;99.90
16829;DHT22;8531;48.078;11.968;2023-10-19T08:42:43;13.40;99.90
16829;DHT22;8531;48.078;11.968;2023-10-19T08:45:11;13.50;99.90
16829;DHT22;8531;48.078;11.968;2023-10-19T08:47:59;13.60;99.90
16829;DHT22;8531;48.078;11.968;2023-10-19T08:50:33;13.70;99.90
16829;DHT22;8531;48.078;11.968;2023-10-19T08:53:05;13.80;99.90
16829;DHT22;8531;48.078;11.968;2023-10-19T08:55:33;14.00;99.90
16829;DHT22;8531;48.078;11.968;2023-10-19T08:58:03;14.10;99.90
16829;DHT22;8531;48.078;11.968;2023-10-19T09:00:48;14.10;99.90
16829;DHT22;8531;48.078;11.968;2023-10-19T09:03:15;14.20;99.90
16829;DHT22;8531;48.078;11.968;2023-10-19T09:05:42;14.30;99.90
16829;DHT22;8531;48.078;11.968;2023-10-19T09:08:14;14.40;99.90
16829;DHT22;8531;48.078;11.968;2023-10-19T09:10:42;14.40;99.90
16829;DHT22;8531;48.078;11.968;2023-10-19T09:13:10;14.40;99.90
16829;DHT22;8531;48.078;11.968;2023-10-19T09:15:39;14.40;99.90
16829;DHT22;8531;48.078;11.968;2023-10-19T09:18:18;14.40;99.90
16829;DHT22;8531;48.078;11.968;2023-10-19T09:20:49;14.30;99.90
16829;DHT22;8531;48.078;11.968;2023-10-19T09:23:21;14.40;99.90
16829;DHT22;8531;48.078;11.968;2023-10-19T09:25:50;14.30;99.90
16829;DHT22;8531;48.078;11.968;2023-10-19T09:28:18;14.40;99.90
16829;DHT22;8531;48.078;11.968;2023-10-19T09:30:44;14.30;99.90
16829;DHT22;8531;48.078;11.968;2023-10-19T09:33:13;14.20;99.90
16829;DHT22;8531;48.078;11.968;2023-10-19T09:35:47;14.20;99.90
16829;DHT22;8531;48.078;11.968;2023-10-19T09:38:15;14.30;99.90
16829;DHT22;8531;48.078;11.968;2023-10-19T09:40:41;14.20;99.90
16829;DHT22;8531;48.078;11.968;2023-10-19T09:43:15;14.20;99.90
16829;DHT22;8531;48.078;11.968;2023-10-19T09:45:42;14.10;99.90
16829;DHT22;8531;48.078;11.968;2023-10-19T09:48:16;14.10;99.90
16829;DHT22;8531;48.078;11.968;2023-10-19T09:50:45;14.20;99.90
16829;DHT22;8531;48.078;11.968;2023-10-19T09:53:18;14.20;99.90
16829;DHT22;8531;48.078;11.968;2023-10-19T09:55:45;14.20;99.90
16829;DHT22;8531;48.078;11.968;2023-10-19T09:58:16;14.20;99.90
16829;DHT22;8531;48.078;11.968;2023-10-19T10:00:46;14.30;99.90
16829;DHT22;8531;48.078;11.968;2023-10-19T10:03:50;14.40;99.90
16829;DHT22;8531;48.078;11.968;2023-10-19T10:09:18;14.40;99.90
16829;DHT22;8531;48.078;11.968;2023-10-19T10:11:49;14.50;99.90
16829;DHT22;8531;48.078;11.968;2023-10-19T10:14:27;14.50;99.90
16829;DHT22;8531;48.078;11.968;2023-10-19T10:17:03;14.60;99.90
16829;DHT22;8531;48.078;11.968;2023-10-19T10:19:31;14.60;99.90
16829;DHT22;8531;48.078;11.968;2023-10-19T10:22:12;14.70;99.90
16829;DHT22;8531;48.078;11.968;2023-10-19T10:24:42;14.70;99.90
16829;DHT22;8531;48.078;11.968;2023-10-19T10:27:09;14.70;99.90
16829;DHT22;8531;48.078;11.968;2023-10-19T10:29:35;14.80;99.90
16829;DHT22;8531;48.078;11.968;2023-10-19T10:32:02;14.80;99.90
16829;DHT22;8531;48.078;11.968;2023-10-19T10:37:06;14.80;99.90
16829;DHT22;8531;48.078;11.968;2023-10-19T10:39:36;14.80;99.90
16829;DHT22;8531;48.078;11.968;2023-10-19T10:42:04;14.80;99.90
16829;DHT22;8531;48.078;11.968;2023-10-19T10:44:47;14.80;99.90
16829;DHT22;8531;48.078;11.968;2023-10-19T10:47:19;14.80;99.90
16829;DHT22;8531;48.078;11.968;2023-10-19T10:49:55;14.90;99.90
16829;DHT22;8531;48.078;11.968;2023-10-19T10:52:31;15.00;99.90
16829;DHT22;8531;48.078;11.968;2023-10-19T10:55:15;15.00;99.90
16829;DHT22;8531;48.078;11.968;2023-10-19T10:57:42;15.10;99.90
16829;DHT22;8531;48.078;11.968;2023-10-19T11:00:11;15.20;99.90
16829;DHT22;8531;48.078;11.968;2023-10-19T11:02:42;15.30;99.90
16829;DHT22;8531;48.078;11.968;2023-10-19T11:05:16;15.40;99.90
16829;DHT22;8531;48.078;11.968;2023-10-19T11:08:11;15.60;99.90
16829;DHT22;8531;48.078;11.968;2023-10-19T11:10:46;15.80;99.90
16829;DHT22;8531;48.078;11.968;2023-10-19T11:13:23;15.90;99.90
16829;DHT22;8531;48.078;11.968;2023-10-19T11:15:53;16.00;99.90
16829;DHT22;8531;48.078;11.968;2023-10-19T11:18:38;16.10;99.90
16829;DHT22;8531;48.078;11.968;2023-10-19T11:21:12;16.20;99.90
16829;DHT22;8531;48.078;11.968;2023-10-19T11:23:45;16.40;99.90
16829;DHT22;8531;48.078;11.968;2023-10-19T11:26:11;16.40;99.90
16829;DHT22;8531;48.078;11.968;2023-10-19T11:28:38;16.40;99.90
16829;DHT22;8531;48.078;11.968;2023-10-19T11:33:42;16.70;99.90
16829;DHT22;8531;48.078;11.968;2023-10-19T11:36:09;16.80;99.90
16829;DHT22;8531;48.078;11.968;2023-10-19T11:38:44;16.80;99.90
16829;DHT22;8531;48.078;11.968;2023-10-19T11:41:11;16.80;99.90
16829;DHT22;8531;48.078;11.968;2023-10-19T11:43:42;16.80;99.90
16829;DHT22;8531;48.078;11.968;2023-10-19T11:46:08;16.90;99.90
16829;DHT22;8531;48.078;11.968;2023-10-19T11:48:35;17.10;99.90
16829;DHT22;8531;48.078;11.968;2023-10-19T11:51:02;17.20;99.90
16829;DHT22;8531;48.078;11.968;2023-10-19T11:53:35;17.30;99.90
16829;DHT22;8531;48.078;11.968;2023-10-19T11:56:03;17.50;99.90
16829;DHT22;8531;48.078;11.968;2023-10-19T11:58:33;17.60;99.90
16829;DHT22;8531;48.078;11.968;2023-10-19T12:01:03;17.50;99.90
16829;DHT22;8531;48.078;11.968;2023-10-19T12:03:40;17.60;99.90
16829;DHT22;8531;48.078;11.968;2023-10-19T12:06:07;17.70;99.90
16829;DHT22;8531;48.078;11.968;2023-10-19T12:08:36;17.90;99.90
16829;DHT22;8531;48.078;11.968;2023-10-19T12:11:03;18.20;99.90
16829;DHT22;8531;48.078;11.968;2023-10-19T12:13:41;18.40;99.90
16829;DHT22;8531;48.078;11.968;2023-10-19T12:16:12;18.50;99.90
16829;DHT22;8531;48.078;11.968;2023-10-19T12:18:41;18.60;99.90
16829;DHT22;8531;48.078;11.968;2023-10-19T12:21:08;18.70;99.90
16829;DHT22;8531;48.078;11.968;2023-10-19T12:23:39;18.70;99.90
16829;DHT22;8531;48.078;11.968;2023-10-19T12:26:05;18.70;99.90
16829;DHT22;8531;48.078;11.968;2023-10-19T12:28:39;18.80;99.90
16829;DHT22;8531;48.078;11.968;2023-10-19T12:31:06;18.70;99.90
16829;DHT22;8531;48.078;11.968;2023-10-19T12:33:35;18.70;99.90
16829;DHT22;8531;48.078;11.968;2023-10-19T12:36:01;18.70;99.90
16829;DHT22;8531;48.078;11.968;2023-10-19T12:38:27;18.60;99.90
16829;DHT22;8531;48.078;11.968;2023-10-19T12:40:53;18.50;99.90
16829;DHT22;8531;48.078;11.968;2023-10-19T12:43:20;18.40;99.90
16829;DHT22;8531;48.078;11.968;2023-10-19T12:45:48;18.40;99.90
16829;DHT22;8531;48.078;11.968;2023-10-19T12:48:19;18.30;99.90
16829;DHT22;8531;48.078;11.968;2023-10-19T12:50:46;18.50;99.90
16829;DHT22;8531;48.078;11.968;2023-10-19T12:53:12;18.50;99.90
16829;DHT22;8531;48.078;11.968;2023-10-19T12:55:39;18.60;99.90
16829;DHT22;8531;48.078;11.968;2023-10-19T12:58:05;18.70;99.90
16829;DHT22;8531;48.078;11.968;2023-10-19T13:00:35;18.80;99.90
16829;DHT22;8531;48.078;11.968;2023-10-19T13:03:04;18.60;99.90
16829;DHT22;8531;48.078;11.968;2023-10-19T13:05:36;18.60;99.90
16829;DHT22;8531;48.078;11.968;2023-10-19T13:08:07;18.50;99.90
16829;DHT22;8531;48.078;11.968;2023-10-19T13:10:34;18.50;99.90
16829;DHT22;8531;48.078;11.968;2023-10-19T13:13:01;18.50;99.90
16829;DHT22;8531;48.078;11.968;2023-10-19T13:15:32;18.50;99.90
16829;DHT22;8531;48.078;11.968;2023-10-19T13:18:00;18.50;99.90
16829;DHT22;8531;48.078;11.968;2023-10-19T13:20:27;18.50;99.90
16829;DHT22;8531;48.078;11.968;2023-10-19T13:22:53;18.40;99.90
16829;DHT22;8531;48.078;11.968;2023-10-19T13:25:21;18.30;99.90
16829;DHT22;8531;48.078;11.968;2023-10-19T13:28:08;18.30;99.90
16829;DHT22;8531;48.078;11.968;2023-10-19T13:30:55;18.30;99.90
16829;DHT22;8531;48.078;11.968;2023-10-19T13:33:22;18.30;99.90
16829;DHT22;8531;48.078;11.968;2023-10-19T13:35:48;18.40;99.90
16829;DHT22;8531;48.078;11.968;2023-10-19T13:38:15;18.40;99.90
16829;DHT22;8531;48.078;11.968;2023-10-19T13:40:42;18.30;99.90
16829;DHT22;8531;48.078;11.968;2023-10-19T13:43:09;18.30;99.90
16829;DHT22;8531;48.078;11.968;2023-10-19T13:45:39;18.30;99.90
16829;DHT22;8531;48.078;11.968;2023-10-19T13:48:07;18.30;99.90
16829;DHT22;8531;48.078;11.968;2023-10-19T13:50:34;18.30;99.90
16829;DHT22;8531;48.078;11.968;2023-10-19T13:53:01;18.20;99.90
16829;DHT22;8531;48.078;11.968;2023-10-19T13:55:28;18.10;99.90
16829;DHT22;8531;48.078;11.968;2023-10-19T13:57:54;18.10;99.90
16829;DHT22;8531;48.078;11.968;2023-10-19T14:00:21;18.10;99.90
16829;DHT22;8531;48.078;11.968;2023-10-19T14:02:56;18.00;99.90
16829;DHT22;8531;48.078;11.968;2023-10-19T14:05:23;18.00;99.90
16829;DHT22;8531;48.078;11.968;2023-10-19T14:07:50;17.90;99.90
16829;DHT22;8531;48.078;11.968;2023-10-19T14:10:17;17.80;99.90
16829;DHT22;8531;48.078;11.968;2023-10-19T14:12:45;17.70;99.90
16829;DHT22;8531;48.078;11.968;2023-10-19T14:15:20;17.70;99.90
16829;DHT22;8531;48.078;11.968;2023-10-19T14:17:47;17.60;99.90
16829;DHT22;8531;48.078;11.968;2023-10-19T14:20:15;17.60;99.90
16829;DHT22;8531;48.078;11.968;2023-10-19T14:22:45;17.60;99.90
16829;DHT22;8531;48.078;11.968;2023-10-19T14:25:12;17.60;99.90
16829;DHT22;8531;48.078;11.968;2023-10-19T14:27:45;17.50;99.90
16829;DHT22;8531;48.078;11.968;2023-10-19T14:30:31;17.40;99.90
16829;DHT22;8531;48.078;11.968;2023-10-19T14:32:56;17.40;99.90
16829;DHT22;8531;48.078;11.968;2023-10-19T14:35:24;17.40;99.90
16829;DHT22;8531;48.078;11.968;2023-10-19T14:37:53;17.30;99.90
16829;DHT22;8531;48.078;11.968;2023-10-19T14:40:26;17.30;99.90
16829;DHT22;8531;48.078;11.968;2023-10-19T14:42:54;17.20;99.90
16829;DHT22;8531;48.078;11.968;2023-10-19T14:45:20;17.20;99.90
16829;DHT22;8531;48.078;11.968;2023-10-19T14:47:50;17.10;99.90
16829;DHT22;8531;48.078;11.968;2023-10-19T14:50:25;17.00;99.90
16829;DHT22;8531;48.078;11.968;2023-10-19T14:52:53;16.90;99.90
16829;DHT22;8531;48.078;11.968;2023-10-19T14:55:20;16.80;99.90
16829;DHT22;8531;48.078;11.968;2023-10-19T14:57:49;16.70;99.90
16829;DHT22;8531;48.078;11.968;2023-10-19T15:00:17;16.70;99.90
16829;DHT22;8531;48.078;11.968;2023-10-19T15:03:01;16.60;99.90
16829;DHT22;8531;48.078;11.968;2023-10-19T15:05:30;16.60;99.90
16829;DHT22;8531;48.078;11.968;2023-10-19T15:08:01;16.60;99.90
16829;DHT22;8531;48.078;11.968;2023-10-19T15:10:27;16.60;99.90
16829;DHT22;8531;48.078;11.968;2023-10-19T15:12:54;16.50;99.90
16829;DHT22;8531;48.078;11.968;2023-10-19T15:15:22;16.60;99.90
16829;DHT22;8531;48.078;11.968;2023-10-19T15:17:48;16.70;99.90
16829;DHT22;8531;48.078;11.968;2023-10-19T15:20:16;16.70;99.90
16829;DHT22;8531;48.078;11.968;2023-10-19T15:22:43;16.70;99.90
16829;DHT22;8531;48.078;11.968;2023-10-19T15:25:10;16.60;99.90
16829;DHT22;8531;48.078;11.968;2023-10-19T15:27:39;16.40;99.90
16829;DHT22;8531;48.078;11.968;2023-10-19T15:30:05;16.40;99.90
16829;DHT22;8531;48.078;11.968;2023-10-19T15:32:34;16.30;99.90
16829;DHT22;8531;48.078;11.968;2023-10-19T15:35:01;16.30;99.90
16829;DHT22;8531;48.078;11.968;2023-10-19T15:37:27;16.20;99.90
16829;DHT22;8531;48.078;11.968;2023-10-19T15:39:53;16.20;99.90
16829;DHT22;8531;48.078;11.968;2023-10-19T15:42:19;16.20;99.90
16829;DHT22;8531;48.078;11.968;2023-10-19T15:44:53;16.20;99.90
16829;DHT22;8531;48.078;11.968;2023-10-19T15:47:18;16.10;99.90
16829;DHT22;8531;48.078;11.968;2023-10-19T15:49:49;16.10;99.90
16829;DHT22;8531;48.078;11.968;2023-10-19T15:52:21;16.10;99.90
16829;DHT22;8531;48.078;11.968;2023-10-19T15:54:47;16.10;99.90
16829;DHT22;8531;48.078;11.968;2023-10-19T15:57:13;16.00;99.90
16829;DHT22;8531;48.078;11.968;2023-10-19T15:59:42;15.90;99.90
16829;DHT22;8531;48.078;11.968;2023-10-19T16:02:12;15.90;99.90